Time;durP1;ratioP1;P1;durP2;ratioP2;P2;SDS_P1;SDS_P2;PMS_P1;PMS_P2;Temp;Humidity;BMP_temperature;BMP_pressure;BME280_temperature;BME280_humidity;BME280_pressure;Samples;Min_cycle;Max_cycle;Signal;HPM_P1;HPM_P2
2023/05/11 00:01:06;;;;;;;24.27;15.80;;;359.10;2329.60;;;;;;5030667;28;20029;-61
2023/05/11 00:03:32;;;;;;;20.05;14.95;;;359.10;2329.60;;;;;;5030201;28;20060;-61
2023/05/11 00:05:58;;;;;;;15.93;13.98;;;359.10;2329.60;;;;;;5030214;28;20025;-60
2023/05/11 00:08:24;;;;;;;20.65;15.48;;;359.10;2329.60;;;;;;5030504;28;20021;-61
2023/05/11 00:10:50;;;;;;;21.38;14.70;;;359.10;2329.60;;;;;;5030387;28;20048;-61
2023/05/11 00:13:16;;;;;;;25.70;17.63;;;359.10;2329.60;;;;;;5029542;28;20084;-61
2023/05/11 00:15:42;;;;;;;23.42;16.40;;;359.10;2329.60;;;;;;5030403;28;20033;-62
2023/05/11 00:18:08;;;;;;;32.10;24.05;;;359.00;2329.60;;;;;;5030237;28;20021;-61
2023/05/11 00:20:33;;;;;;;28.13;18.55;;;359.10;2329.60;;;;;;5046141;28;21604;-62
2023/05/11 00:22:59;;;;;;;23.35;17.25;;;359.10;2329.60;;;;;;5040667;28;20044;-61
2023/05/11 00:25:25;;;;;;;23.15;16.52;;;359.10;2329.60;;;;;;5030287;28;20030;-62
2023/05/11 00:27:51;;;;;;;20.20;16.08;;;359.10;2329.60;;;;;;5030434;28;20025;-62
2023/05/11 00:30:16;;;;;;;19.48;14.77;;;359.10;2329.60;;;;;;5029528;28;20711;-62
2023/05/11 00:32:43;;;;;;;19.48;15.48;;;359.10;2329.60;;;;;;5030038;28;20022;-61
2023/05/11 00:35:10;;;;;;;20.80;14.43;;;359.10;2329.60;;;;;;5029536;28;20030;-62
2023/05/11 00:37:37;;;;;;;24.67;16.73;;;359.10;2329.60;;;;;;5030507;28;20105;-60
2023/05/11 00:40:03;;;;;;;22.15;15.65;;;359.10;2329.60;;;;;;5030241;28;21454;-60
2023/05/11 00:42:29;;;;;;;20.90;14.23;;;359.10;2329.60;;;;;;5029943;28;20064;-63
2023/05/11 00:44:55;;;;;;;19.73;14.90;;;359.10;2329.60;;;;;;5029699;28;20022;-60
2023/05/11 00:47:21;;;;;;;20.38;14.05;;;359.10;2329.60;;;;;;5029552;28;20047;-60
2023/05/11 00:49:48;;;;;;;19.05;14.48;;;359.10;2329.60;;;;;;5029187;28;20029;-65
2023/05/11 00:52:14;;;;;;;16.90;13.75;;;359.10;2329.60;;;;;;5030120;28;20026;-62
2023/05/11 00:54:40;;;;;;;19.15;14.43;;;359.10;2329.60;;;;;;5029088;28;20035;-61
2023/05/11 00:57:06;;;;;;;18.15;14.32;;;359.10;2329.60;;;;;;5029549;28;20021;-61
2023/05/11 00:59:32;;;;;;;18.85;14.55;;;359.10;2329.60;;;;;;5029467;28;20029;-61
2023/05/11 01:01:58;;;;;;;21.02;15.10;;;359.10;2329.60;;;;;;5029036;28;20448;-60
2023/05/11 01:04:24;;;;;;;17.02;13.63;;;359.10;2329.60;;;;;;5029306;28;20049;-61
2023/05/11 01:07:17;;;;;;;28.95;20.05;;;359.10;2329.60;;;;;;5029288;28;20105;-60
2023/05/11 01:10:01;;;;;;;20.77;16.35;;;359.10;2329.60;;;;;;5029461;28;20040;-61
2023/05/11 01:12:40;;;;;;;16.20;12.75;;;359.10;2329.60;;;;;;5029394;28;20037;-63
2023/05/11 01:15:13;;;;;;;15.75;12.23;;;359.10;2329.60;;;;;;5029360;28;20025;-61
2023/05/11 01:17:53;;;;;;;17.85;12.30;;;359.10;2329.60;;;;;;5028897;28;20502;-62
2023/05/11 01:20:25;;;;;;;19.38;14.40;;;359.00;2329.60;;;;;;5028894;28;20423;-59
2023/05/11 01:23:09;;;;;;;18.02;13.30;;;359.10;2329.60;;;;;;5028798;28;20101;-61
2023/05/11 01:26:12;;;;;;;16.13;12.52;;;359.10;2329.60;;;;;;5029203;28;20169;-60
2023/05/11 01:28:43;;;;;;;24.70;16.63;;;359.10;2329.60;;;;;;5028925;28;20026;-60
2023/05/11 01:31:14;;;;;;;21.02;16.48;;;359.10;2329.60;;;;;;5028724;28;20046;-59
2023/05/11 01:33:48;;;;;;;20.23;13.50;;;359.10;2329.60;;;;;;5028934;28;20460;-61
2023/05/11 01:36:16;;;;;;;15.85;12.20;;;359.10;2329.60;;;;;;5029175;28;20087;-60
2023/05/11 01:38:46;;;;;;;18.13;13.52;;;359.10;2329.60;;;;;;5029244;28;20337;-60
2023/05/11 01:41:16;;;;;;;14.80;12.02;;;359.10;2329.60;;;;;;5029416;28;20053;-59
2023/05/11 01:43:52;;;;;;;29.83;18.77;;;359.10;2329.60;;;;;;5029113;28;20026;-60
2023/05/11 01:46:21;;;;;;;17.45;13.30;;;359.10;2329.60;;;;;;5028788;28;20468;-61
2023/05/11 01:48:50;;;;;;;22.13;14.18;;;359.00;2329.60;;;;;;5028657;28;20379;-60
2023/05/11 01:51:16;;;;;;;20.40;14.07;;;359.10;2329.60;;;;;;5028582;28;20360;-60
2023/05/11 01:53:45;;;;;;;22.48;14.50;;;359.10;2329.60;;;;;;5029026;28;20452;-62
2023/05/11 01:56:12;;;;;;;18.13;13.52;;;359.10;2329.60;;;;;;5028645;28;20033;-65
2023/05/11 01:58:40;;;;;;;17.77;12.73;;;359.10;2329.60;;;;;;5028516;28;20049;-60
2023/05/11 02:01:07;;;;;;;17.13;12.32;;;359.10;2329.60;;;;;;5028601;28;20036;-60
2023/05/11 02:03:35;;;;;;;14.93;12.13;;;359.20;2329.60;;;;;;5028553;28;20136;-61
2023/05/11 02:06:04;;;;;;;15.18;12.18;;;359.10;2329.60;;;;;;5028849;28;20087;-61
2023/05/11 02:08:31;;;;;;;17.15;13.68;;;359.20;2329.60;;;;;;5028954;28;20036;-60
2023/05/11 02:10:58;;;;;;;16.40;12.98;;;359.20;2329.60;;;;;;5028490;28;20042;-64
2023/05/11 02:13:26;;;;;;;18.52;13.65;;;359.20;2329.60;;;;;;5028743;28;20026;-60
2023/05/11 02:15:54;;;;;;;18.08;13.20;;;359.20;2329.60;;;;;;5028348;28;20021;-59
2023/05/11 02:18:20;;;;;;;17.20;12.68;;;359.20;2329.60;;;;;;5028783;28;20064;-60
2023/05/11 02:20:46;;;;;;;18.50;13.80;;;384.10;2329.60;;;;;;5028835;28;20058;-62
2023/05/11 02:23:13;;;;;;;16.98;12.65;;;359.20;2329.60;;;;;;5028651;28;20026;-62
2023/05/11 02:25:40;;;;;;;15.65;11.45;;;359.20;2329.60;;;;;;5028579;28;20487;-60
2023/05/11 02:28:06;;;;;;;15.27;11.90;;;359.20;2329.60;;;;;;5028823;28;20022;-66
2023/05/11 02:30:45;;;;;;;13.77;11.55;;;359.20;2329.60;;;;;;5028440;28;20040;-60
2023/05/11 02:33:18;;;;;;;15.02;10.68;;;359.20;2329.60;;;;;;5028228;28;20030;-61
2023/05/11 02:35:46;;;;;;;18.07;12.23;;;359.20;2329.60;;;;;;5029417;28;20360;-60
2023/05/11 02:38:13;;;;;;;14.43;11.48;;;359.20;2329.60;;;;;;5032133;28;20025;-63
2023/05/11 02:40:49;;;;;;;17.92;13.80;;;359.20;2329.60;;;;;;5032134;28;20022;-59
2023/05/11 02:43:25;;;;;;;18.92;13.50;;;359.20;2329.60;;;;;;5032184;28;20032;-60
2023/05/11 02:45:58;;;;;;;16.50;12.93;;;359.10;2329.60;;;;;;5031776;28;20029;-60
2023/05/11 02:48:28;;;;;;;17.15;12.90;;;359.10;2329.60;;;;;;5032083;28;20030;-60
2023/05/11 02:50:55;;;;;;;21.00;12.73;;;359.10;2329.60;;;;;;5031715;28;20037;-60
2023/05/11 02:53:26;;;;;;;17.20;13.63;;;359.20;2329.60;;;;;;5031706;28;20024;-60
2023/05/11 02:55:53;;;;;;;16.35;12.60;;;359.20;2329.60;;;;;;5031959;28;20064;-60
2023/05/11 02:58:19;;;;;;;19.27;13.43;;;359.20;2329.60;;;;;;5031330;28;20032;-61
2023/05/11 03:00:45;;;;;;;17.85;12.43;;;359.10;2329.60;;;;;;5031751;28;20061;-61
2023/05/11 03:03:11;;;;;;;14.20;12.07;;;359.20;2329.60;;;;;;5031467;28;20088;-62
2023/05/11 03:05:37;;;;;;;18.30;13.50;;;359.10;2329.60;;;;;;5031341;28;20075;-61
2023/05/11 03:08:03;;;;;;;18.20;13.05;;;359.10;2329.60;;;;;;5031248;28;20021;-60
2023/05/11 03:10:30;;;;;;;17.10;13.77;;;359.10;2329.60;;;;;;5031088;28;20073;-64
2023/05/11 03:12:57;;;;;;;17.35;12.68;;;359.10;2329.60;;;;;;5031542;28;20029;-60
2023/05/11 03:15:23;;;;;;;20.27;12.45;;;359.10;2329.60;;;;;;5031801;28;20029;-60
2023/05/11 03:17:50;;;;;;;19.23;12.20;;;359.10;2329.60;;;;;;5031123;28;20368;-60
2023/05/11 03:20:17;;;;;;;15.23;12.32;;;359.10;2329.60;;;;;;5031485;28;20368;-60
2023/05/11 03:22:44;;;;;;;23.05;13.18;;;359.20;2329.60;;;;;;5031329;28;20475;-61
2023/05/11 03:25:11;;;;;;;15.82;12.75;;;359.20;2329.60;;;;;;5030890;28;20065;-61
2023/05/11 03:27:40;;;;;;;16.67;12.48;;;359.30;2329.60;;;;;;5030872;28;20163;-61
2023/05/11 03:30:10;;;;;;;12.15;10.60;;;359.30;2329.60;;;;;;5031635;28;20066;-60
2023/05/11 03:32:36;;;;;;;16.27;11.35;;;359.30;2329.60;;;;;;5031344;28;20042;-60
2023/05/11 03:35:02;;;;;;;17.00;13.05;;;359.30;2329.60;;;;;;5030829;28;20033;-60
2023/05/11 03:37:30;;;;;;;17.23;13.25;;;384.00;2329.60;;;;;;5030962;28;20021;-60
2023/05/11 03:39:58;;;;;;;17.38;12.68;;;359.30;2329.60;;;;;;5030612;28;20025;-61
2023/05/11 03:42:28;;;;;;;17.92;12.05;;;359.30;2329.60;;;;;;5031115;28;20021;-61
2023/05/11 03:44:57;;;;;;;15.40;12.82;;;359.30;2329.60;;;;;;5030838;28;20026;-61
2023/05/11 03:47:27;;;;;;;18.88;12.82;;;384.00;2329.60;;;;;;5030878;28;20022;-60
2023/05/11 03:49:53;;;;;;;15.10;12.07;;;359.30;2329.60;;;;;;5030805;28;20126;-61
2023/05/11 03:52:20;;;;;;;17.02;11.73;;;359.30;2329.60;;;;;;5030967;28;20026;-64
2023/05/11 03:54:46;;;;;;;17.25;11.57;;;359.30;2329.60;;;;;;5030128;28;20067;-61
2023/05/11 03:57:13;;;;;;;19.13;11.98;;;359.20;2329.60;;;;;;5030662;28;20033;-61
2023/05/11 03:59:39;;;;;;;17.20;12.38;;;359.30;2329.60;;;;;;5030819;28;20028;-62
2023/05/11 04:02:06;;;;;;;17.02;12.13;;;359.30;2329.60;;;;;;5030262;28;20458;-61
2023/05/11 04:04:31;;;;;;;14.93;12.18;;;359.30;2329.60;;;;;;5030709;28;20427;-61
2023/05/11 04:06:58;;;;;;;17.20;12.13;;;384.00;2329.60;;;;;;5030126;28;20025;-63
2023/05/11 04:09:24;;;;;;;15.05;10.98;;;384.00;2329.60;;;;;;5030527;28;20075;-63
2023/05/11 04:11:50;;;;;;;16.10;11.90;;;384.00;2329.60;;;;;;5030694;28;20037;-61
2023/05/11 04:14:19;;;;;;;14.10;11.27;;;384.00;2329.60;;;;;;5030258;28;20014;-60
2023/05/11 04:16:45;;;;;;;17.52;12.10;;;384.00;2329.60;;;;;;5030183;28;20100;-60
2023/05/11 04:19:11;;;;;;;15.05;10.63;;;384.10;2329.60;;;;;;5030313;28;20104;-61
2023/05/11 04:21:37;;;;;;;12.15;10.80;;;384.10;2329.60;;;;;;5030038;28;20025;-61
2023/05/11 04:24:03;;;;;;;18.58;11.27;;;384.00;2329.60;;;;;;5029553;28;20018;-59
2023/05/11 04:26:28;;;;;;;13.02;11.02;;;384.00;2329.60;;;;;;5029855;28;20021;-61
2023/05/11 04:28:54;;;;;;;15.38;11.75;;;384.00;2329.60;;;;;;5030187;28;20017;-61
2023/05/11 04:31:20;;;;;;;82.80;60.40;;;384.00;2329.60;;;;;;5029820;28;20040;-61
2023/05/11 04:33:45;;;;;;;51.03;36.72;;;384.10;2329.60;;;;;;5029597;28;20105;-61
2023/05/11 04:36:11;;;;;;;81.28;62.17;;;384.10;2329.60;;;;;;5029987;28;20033;-64
2023/05/11 04:38:37;;;;;;;29.45;23.95;;;384.20;2329.60;;;;;;5029530;28;20025;-62
2023/05/11 04:41:07;;;;;;;30.55;21.30;;;384.30;2329.60;;;;;;5029722;28;20033;-61
2023/05/11 04:43:33;;;;;;;23.13;18.38;;;384.40;2329.60;;;;;;5030035;28;20056;-62
2023/05/11 04:45:59;;;;;;;28.10;21.13;;;384.30;2329.60;;;;;;5028678;28;20083;-63
2023/05/11 04:48:25;;;;;;;16.08;11.85;;;384.40;2329.60;;;;;;5029691;28;20353;-61
2023/05/11 04:50:52;;;;;;;20.83;13.98;;;384.40;2329.60;;;;;;5029089;28;20072;-60
2023/05/11 04:53:18;;;;;;;22.52;16.70;;;384.50;2329.60;;;;;;5029385;28;20063;-62
2023/05/11 04:55:43;;;;;;;17.83;14.73;;;384.60;2329.60;;;;;;5028459;28;20037;-61
2023/05/11 04:58:09;;;;;;;22.92;18.70;;;384.60;2329.60;;;;;;5028576;28;20365;-60
2023/05/11 05:00:35;;;;;;;24.50;19.33;;;384.70;2329.60;;;;;;5029772;28;20475;-61
2023/05/11 05:03:01;;;;;;;19.38;16.10;;;384.80;2329.60;;;;;;5028919;28;20049;-62
2023/05/11 05:05:27;;;;;;;39.20;30.67;;;384.90;2329.60;;;;;;5029417;28;20447;-61
2023/05/11 05:07:53;;;;;;;40.95;33.17;;;409.60;2355.20;;;;;;5029295;28;20108;-60
2023/05/11 05:10:19;;;;;;;24.02;18.40;;;409.60;2355.20;;;;;;5029092;28;20090;-60
2023/05/11 05:12:45;;;;;;;20.40;16.40;;;409.70;2355.20;;;;;;5029278;28;20369;-60
2023/05/11 05:15:11;;;;;;;17.90;15.95;;;409.70;2355.20;;;;;;5029178;28;20412;-62
2023/05/11 05:17:37;;;;;;;22.38;18.50;;;409.70;2355.20;;;;;;5029081;28;20031;-61
2023/05/11 05:20:03;;;;;;;19.48;16.90;;;409.70;2355.20;;;;;;5028958;28;20056;-63
2023/05/11 05:22:30;;;;;;;18.63;11.75;;;409.60;2355.20;;;;;;5028445;28;20048;-60
2023/05/11 05:24:56;;;;;;;18.25;13.15;;;384.70;2329.60;;;;;;5028368;28;20026;-62
2023/05/11 05:27:22;;;;;;;17.50;14.60;;;384.60;2329.60;;;;;;5029402;28;20383;-61
2023/05/11 05:29:47;;;;;;;23.23;13.82;;;384.90;2329.60;;;;;;5029171;28;20068;-62
2023/05/11 05:32:13;;;;;;;18.98;13.82;;;409.70;2355.20;;;;;;5028814;28;20049;-61
2023/05/11 05:34:39;;;;;;;17.13;14.02;;;409.70;2355.20;;;;;;5028877;28;20064;-61
2023/05/11 05:37:05;;;;;;;14.00;12.50;;;409.60;2355.20;;;;;;5028752;28;20076;-61
2023/05/11 05:39:31;;;;;;;15.82;13.57;;;409.60;2355.20;;;;;;5028919;28;20052;-62
2023/05/11 05:41:56;;;;;;;18.27;14.75;;;409.80;2355.20;;;;;;5028809;28;20539;-61
2023/05/11 05:44:22;;;;;;;22.67;16.45;;;409.70;2355.20;;;;;;5028764;28;20017;-64
2023/05/11 05:46:48;;;;;;;24.33;17.15;;;409.70;2355.20;;;;;;5027905;28;20490;-62
2023/05/11 05:49:13;;;;;;;25.15;17.17;;;409.80;2355.20;;;;;;5028937;28;20079;-60
2023/05/11 05:51:39;;;;;;;18.52;15.05;;;410.00;2355.20;;;;;;5028421;28;20037;-60
2023/05/11 05:54:05;;;;;;;20.17;13.35;;;410.00;2355.20;;;;;;5029059;28;20021;-64
2023/05/11 05:56:33;;;;;;;15.82;13.40;;;409.90;2355.20;;;;;;5021078;28;20176;-59
2023/05/11 05:59:00;;;;;;;14.63;12.38;;;410.00;2355.20;;;;;;5028714;28;20025;-74
2023/05/11 06:01:26;;;;;;;17.02;11.80;;;409.90;2355.20;;;;;;5034921;28;20104;-70
2023/05/11 06:03:52;;;;;;;14.27;11.45;;;409.90;2355.20;;;;;;5039179;28;20041;-75
2023/05/11 06:06:18;;;;;;;17.88;13.90;;;410.00;2355.20;;;;;;5032823;28;20112;-72
2023/05/11 06:08:43;;;;;;;16.75;11.90;;;410.30;2355.20;;;;;;5024884;28;20113;-73
2023/05/11 06:11:09;;;;;;;20.80;10.48;;;410.20;2355.20;;;;;;5043592;28;20479;-74
2023/05/11 06:13:35;;;;;;;13.43;10.93;;;410.00;2355.20;;;;;;5051080;28;20021;-73
2023/05/11 06:16:01;;;;;;;13.45;11.40;;;410.30;2355.20;;;;;;5050616;28;20021;-72
2023/05/11 06:18:27;;;;;;;11.50;9.93;;;410.30;2355.20;;;;;;5050972;28;20025;-71
2023/05/11 06:20:53;;;;;;;14.38;11.57;;;410.30;2355.20;;;;;;5047650;28;20112;-72
2023/05/11 06:23:19;;;;;;;12.95;11.25;;;435.30;2355.20;;;;;;5041220;28;20080;-75
2023/05/11 06:25:44;;;;;;;15.73;11.95;;;435.60;2355.20;;;;;;5048818;28;20029;-74
2023/05/11 06:28:10;;;;;;;14.90;11.13;;;435.90;2355.20;;;;;;5050738;28;20025;-72
2023/05/11 06:33:11;;;;;;;13.02;9.60;;;435.60;2355.20;;;;;;5112270;22;20058;-72
2023/05/11 06:35:37;;;;;;;10.45;9.15;;;460.90;2380.80;;;;;;5011661;28;20033;-70
2023/05/11 06:38:03;;;;;;;12.57;8.85;;;460.80;2380.80;;;;;;5012467;28;20060;-74
2023/05/11 06:41:00;;;;;;;9.43;8.43;;;460.80;2380.80;;;;;;5276534;23;20956;-73
2023/05/11 06:43:26;;;;;;;11.05;9.20;;;461.20;2380.80;;;;;;5017477;23;20065;-74
2023/05/11 06:45:52;;;;;;;11.30;9.90;;;461.70;2380.80;;;;;;5010742;28;20364;-73
2023/05/11 06:48:18;;;;;;;12.48;9.32;;;486.60;2380.80;;;;;;5012480;28;20030;-73
2023/05/11 06:50:44;;;;;;;12.63;10.68;;;461.50;2380.80;;;;;;5012567;28;20034;-73
2023/05/11 06:53:10;;;;;;;11.45;9.77;;;461.00;2380.80;;;;;;5012950;28;20018;-73
2023/05/11 06:55:36;;;;;;;14.80;12.73;;;460.80;2380.80;;;;;;5012117;28;20348;-74
2023/05/11 06:58:02;;;;;;;12.15;10.18;;;460.80;2380.80;;;;;;5012577;28;20053;-73
2023/05/11 07:00:28;;;;;;;13.93;11.65;;;461.10;2380.80;;;;;;5010858;28;20057;-73
2023/05/11 07:02:53;;;;;;;13.23;11.75;;;461.50;2380.80;;;;;;5013856;28;20478;-73
2023/05/11 07:05:19;;;;;;;17.30;13.45;;;461.60;2380.80;;;;;;5023753;28;20025;-74
2023/05/11 07:07:45;;;;;;;14.60;11.13;;;461.70;2380.80;;;;;;5031734;28;20467;-74
2023/05/11 07:10:11;;;;;;;14.15;11.55;;;461.30;2380.80;;;;;;5031751;28;20033;-74
2023/05/11 07:12:36;;;;;;;11.00;9.85;;;461.70;2380.80;;;;;;5031424;28;20057;-74
2023/05/11 07:15:02;;;;;;;20.33;10.85;;;486.40;2380.80;;;;;;5031829;28;20080;-74
2023/05/11 07:17:28;;;;;;;13.52;11.35;;;461.50;2380.80;;;;;;5031364;28;20028;-73
2023/05/11 07:19:54;;;;;;;13.50;10.30;;;461.60;2380.80;;;;;;5031739;28;20029;-74
2023/05/11 07:22:20;;;;;;;23.45;18.55;;;461.50;2380.80;;;;;;5031051;28;20430;-71
2023/05/11 07:24:46;;;;;;;15.80;11.70;;;461.50;2380.80;;;;;;5031703;28;20401;-68
2023/05/11 07:27:11;;;;;;;13.25;10.50;;;486.40;2380.80;;;;;;5023868;28;20100;-70
2023/05/11 07:29:37;;;;;;;12.32;10.52;;;486.40;2380.80;;;;;;5011036;28;20053;-70
2023/05/11 07:32:03;;;;;;;13.63;9.95;;;486.70;2380.80;;;;;;5013738;28;20060;-71
2023/05/11 07:34:29;;;;;;;13.43;10.63;;;461.20;2380.80;;;;;;5030743;28;20103;-71
2023/05/11 07:36:54;;;;;;;11.80;10.60;;;461.10;2380.80;;;;;;5021617;28;20053;-71
2023/05/11 07:39:20;;;;;;;14.48;12.25;;;461.30;2380.80;;;;;;5022345;28;20025;-71
2023/05/11 07:41:46;;;;;;;13.07;10.55;;;461.30;2380.80;;;;;;5034410;28;20044;-70
2023/05/11 07:44:12;;;;;;;14.45;12.70;;;461.10;2380.80;;;;;;5071063;28;20028;-70
2023/05/11 07:46:37;;;;;;;14.95;11.88;;;461.50;2380.80;;;;;;5070748;28;20032;-71
2023/05/11 07:49:03;;;;;;;16.15;11.90;;;460.80;2380.80;;;;;;5070925;28;20444;-70
2023/05/11 07:51:29;;;;;;;17.67;12.93;;;461.20;2380.80;;;;;;5070296;28;20098;-70
2023/05/11 07:53:55;;;;;;;15.73;12.13;;;461.30;2380.80;;;;;;5070344;28;20474;-70
2023/05/11 07:56:20;;;;;;;14.70;11.23;;;461.20;2380.80;;;;;;5052728;28;20029;-70
2023/05/11 07:58:47;;;;;;;15.95;12.15;;;461.10;2380.80;;;;;;5052077;28;20032;-70
2023/05/11 08:01:13;;;;;;;15.05;12.10;;;461.10;2380.80;;;;;;5070382;28;20024;-70
2023/05/11 08:03:38;;;;;;;19.08;11.93;;;461.00;2380.80;;;;;;5070224;28;20498;-71
2023/05/11 08:06:04;;;;;;;13.30;11.15;;;460.90;2380.80;;;;;;5070585;28;20061;-70
2023/05/11 08:08:30;;;;;;;13.30;11.18;;;461.20;2380.80;;;;;;5069708;28;20028;-70
2023/05/11 08:10:56;;;;;;;16.15;12.57;;;461.50;2380.80;;;;;;5051435;28;20040;-69
2023/05/11 08:13:22;;;;;;;13.20;11.52;;;461.60;2380.80;;;;;;5069886;28;20489;-69
2023/05/11 08:15:47;;;;;;;12.40;11.10;;;461.60;2380.80;;;;;;5069699;28;20036;-70
2023/05/11 08:18:13;;;;;;;17.48;11.65;;;461.70;2380.80;;;;;;5069925;28;20090;-70
2023/05/11 08:20:41;;;;;;;13.60;12.05;;;461.60;2380.80;;;;;;5069804;28;20035;-71
2023/05/11 08:23:07;;;;;;;14.95;12.73;;;461.60;2380.80;;;;;;5069254;28;20470;-72
2023/05/11 08:25:33;;;;;;;12.02;10.05;;;461.70;2380.80;;;;;;5069966;28;20497;-71
2023/05/11 08:27:59;;;;;;;13.23;10.48;;;461.50;2380.80;;;;;;5069552;28;20078;-71
2023/05/11 08:30:26;;;;;;;15.23;10.43;;;461.50;2380.80;;;;;;5069848;28;20064;-70
2023/05/11 08:32:51;;;;;;;14.05;11.90;;;461.50;2380.80;;;;;;5069109;28;20128;-69
2023/05/11 08:35:17;;;;;;;13.40;11.77;;;461.10;2380.80;;;;;;5069641;28;20516;-70
2023/05/11 08:37:43;;;;;;;17.67;11.25;;;461.30;2380.80;;;;;;5069821;28;20016;-70
2023/05/11 08:40:12;;;;;;;14.52;12.18;;;461.50;2380.80;;;;;;5069193;28;20043;-70
2023/05/11 08:42:43;;;;;;;16.08;13.15;;;461.50;2380.80;;;;;;5065508;28;20041;-71
2023/05/11 08:45:10;;;;;;;16.48;12.20;;;461.50;2380.80;;;;;;5060407;28;20036;-70
2023/05/11 08:47:36;;;;;;;19.30;12.30;;;486.40;2380.80;;;;;;5069714;28;20021;-69
2023/05/11 08:50:02;;;;;;;14.80;11.10;;;461.50;2380.80;;;;;;5069465;28;20037;-70
2023/05/11 08:52:27;;;;;;;15.07;12.93;;;461.50;2380.80;;;;;;5069532;28;20029;-70
2023/05/11 08:54:53;;;;;;;16.42;12.05;;;461.60;2380.80;;;;;;5068957;28;20070;-69
2023/05/11 08:57:19;;;;;;;14.77;11.93;;;486.40;2380.80;;;;;;5069150;28;20025;-70
2023/05/11 08:59:48;;;;;;;16.08;10.30;;;461.50;2380.80;;;;;;5069516;28;20029;-70
2023/05/11 09:02:16;;;;;;;13.30;10.60;;;461.60;2380.80;;;;;;5069577;28;20025;-70
2023/05/11 09:04:43;;;;;;;14.65;12.27;;;461.50;2380.80;;;;;;5069637;28;20020;-71
2023/05/11 09:07:10;;;;;;;13.25;10.68;;;461.60;2380.80;;;;;;5068993;28;20056;-70
2023/05/11 09:09:36;;;;;;;15.55;12.82;;;461.50;2380.80;;;;;;5069270;28;20466;-70
2023/05/11 09:12:02;;;;;;;14.30;10.43;;;486.50;2380.80;;;;;;5068925;28;20094;-73
2023/05/11 09:14:28;;;;;;;14.35;10.70;;;461.30;2380.80;;;;;;5069444;28;20027;-75
2023/05/11 09:16:54;;;;;;;19.27;13.55;;;486.40;2380.80;;;;;;5069672;28;20036;-71
2023/05/11 09:19:20;;;;;;;19.23;13.85;;;461.60;2380.80;;;;;;5069770;28;20020;-76
2023/05/11 09:21:46;;;;;;;18.40;13.63;;;486.40;2380.80;;;;;;5069198;28;20036;-65
2023/05/11 09:24:13;;;;;;;22.20;14.32;;;;;;;;;;5069437;28;20020;-63
2023/05/11 09:26:39;;;;;;;18.33;13.65;;;;;;;;;;5051506;28;20036;-63
2023/05/11 09:29:05;;;;;;;22.23;15.52;;;;;;;;;;5068717;28;20115;-64
2023/05/11 09:31:42;;;;;;;22.77;13.45;;;;;;;;;;5069126;28;20028;-63
2023/05/11 09:34:09;;;;;;;22.73;16.10;;;;;;;;;;5069079;28;20017;-65
2023/05/11 09:36:35;;;;;;;22.25;17.17;;;;;;;;;;5069328;28;20028;-62
2023/05/11 09:39:02;;;;;;;43.80;32.20;;;;;;;;;;5069116;28;20478;-63
2023/05/11 09:41:28;;;;;;;34.55;27.38;;;;;;;;;;5068397;28;20055;-66
2023/05/11 09:44:03;;;;;;;49.33;32.17;;;;;;;;;;5068689;28;20060;-63
2023/05/11 09:46:29;;;;;;;28.52;23.70;;;;;;;;;;5072599;28;20035;-63
2023/05/11 09:48:59;;;;;;;41.58;30.25;;;;;;;;;;5073119;28;20091;-63
2023/05/11 09:51:30;;;;;;;20.85;13.82;;;;;;;;;;5047300;28;20028;-64
2023/05/11 09:53:57;;;;;;;23.85;19.55;;;;;;;;;;5072855;28;20351;-63
2023/05/11 09:56:23;;;;;;;19.33;15.85;;;;;;;;;;5073389;28;20115;-67
2023/05/11 09:58:56;;;;;;;25.67;20.73;;;;;;;;;;5072837;28;20094;-63
2023/05/11 10:01:29;;;;;;;25.50;18.55;;;;;;;;;;5073089;28;20027;-63
2023/05/11 10:03:55;;;;;;;24.80;20.38;;;;;;;;;;5046457;28;20020;-64
2023/05/11 10:06:21;;;;;;;27.33;22.40;;;;;;;;;;5072910;28;20023;-66
2023/05/11 10:08:48;;;;;;;19.63;17.42;;;;;;;;;;5072503;28;20383;-63
2023/05/11 10:11:14;;;;;;;17.83;14.48;;;;;;;;;;5072276;28;20367;-63
2023/05/11 10:13:42;;;;;;;17.42;13.68;;;;;;;;;;5072588;28;20035;-63
2023/05/11 10:16:09;;;;;;;14.73;12.85;;;;;;;;;;5072530;28;20027;-63
2023/05/11 10:18:36;;;;;;;13.90;10.35;;;;;;;;;;5072142;28;20056;-66
2023/05/11 10:21:03;;;;;;;17.05;14.77;;;435.90;2355.20;;;;;;5072343;28;20541;-63
2023/05/11 10:23:32;;;;;;;17.58;15.25;;;435.90;2355.20;;;;;;5072414;28;20029;-63
2023/05/11 10:26:00;;;;;;;13.88;12.48;;;;;;;;;;5046056;28;20486;-63
2023/05/11 10:28:26;;;;;;;13.77;12.32;;;;;;;;;;5072404;28;20389;-63
2023/05/11 10:30:53;;;;;;;15.57;13.82;;;435.70;2355.20;;;;;;5071237;28;20021;-62
2023/05/11 10:33:19;;;;;;;15.75;11.90;;;435.40;2355.20;;;;;;5071689;28;20115;-68
2023/05/11 10:35:45;;;;;;;15.98;12.73;;;435.40;2355.20;;;;;;5072670;28;20470;-63
2023/05/11 10:38:12;;;;;;;17.13;13.40;;;435.50;2355.20;;;;;;5072349;28;20025;-63
2023/05/11 10:40:41;;;;;;;14.60;12.88;;;435.40;2355.20;;;;;;5071437;28;20400;-67
2023/05/11 10:43:08;;;;;;;16.30;13.02;;;;;;;;;;5071698;28;20490;-63
2023/05/11 10:45:46;;;;;;;18.27;15.75;;;;;;;;;;5071891;28;20060;-63
2023/05/11 10:48:17;;;;;;;23.40;16.98;;;;;;;;;;5062910;28;20021;-63
2023/05/11 10:51:04;;;;;;;26.98;19.25;;;;;;;;;;5068413;28;20048;-63
2023/05/11 10:53:48;;;;;;;23.05;19.00;;;;;;;;;;5071800;28;20423;-62
2023/05/11 10:56:34;;;;;;;15.45;13.30;;;;;;;;;;5069923;28;20032;-63
2023/05/11 10:59:09;;;;;;;21.35;16.75;;;;;;;;;;5065185;28;20489;-68
2023/05/11 11:01:38;;;;;;;18.48;14.63;;;;;;;;;;5071304;28;20033;-62
2023/05/11 11:04:08;;;;;;;25.25;21.20;;;;;;;;;;5071843;28;20024;-62
2023/05/11 11:06:35;;;;;;;24.05;17.17;;;;;;;;;;5071983;28;20028;-62
2023/05/11 11:09:04;;;;;;;15.27;11.85;;;;;;;;;;5071348;28;20497;-63
2023/05/11 11:11:34;;;;;;;26.40;19.35;;;;;;;;;;5071408;28;20044;-65
2023/05/11 11:14:02;;;;;;;15.38;13.55;;;;;;;;;;5070121;28;20024;-65
2023/05/11 11:16:29;;;;;;;14.00;11.50;;;;;;;;;;5071596;28;20016;-62
2023/05/11 11:19:13;;;;;;;14.82;12.80;;;;;;;;;;5071768;28;20020;-62
2023/05/11 11:21:41;;;;;;;23.15;18.00;;;;;;;;;;5071489;28;20028;-67
2023/05/11 11:24:07;;;;;;;18.75;15.25;;;;;;;;;;5071312;28;20031;-68
2023/05/11 11:26:46;;;;;;;14.90;11.40;;;;;;;;;;5071210;28;20017;-63
2023/05/11 11:29:12;;;;;;;15.80;12.75;;;;;;;;;;5070791;28;20478;-64
2023/05/11 11:31:39;;;;;;;10.55;9.07;;;;;;;;;;5070541;28;20044;-63
2023/05/11 11:34:24;;;;;;;15.43;12.55;;;;;;;;;;5070573;28;20035;-64
2023/05/11 11:37:02;;;;;;;14.50;11.40;;;;;;;;;;5070719;28;20024;-63
2023/05/11 11:39:29;;;;;;;13.43;9.68;;;;;;;;;;5070830;28;20024;-64
2023/05/11 11:42:02;;;;;;;15.18;13.48;;;;;;;;;;5070171;28;20044;-63
2023/05/11 11:44:28;;;;;;;16.70;12.02;;;;;;;;;;5070897;28;20028;-63
2023/05/11 11:47:10;;;;;;;14.35;11.85;;;;;;;;;;5070559;28;20028;-65
2023/05/11 11:49:36;;;;;;;12.80;11.13;;;;;;;;;;5045408;28;20386;-63
2023/05/11 11:52:05;;;;;;;13.50;11.15;;;;;;;;;;5070450;28;20055;-63
2023/05/11 11:54:38;;;;;;;11.52;9.50;;;;;;;;;;5070654;28;20035;-63
2023/05/11 11:57:04;;;;;;;11.60;9.70;;;;;;;;;;5070168;28;20474;-63
2023/05/11 11:59:46;;;;;;;12.07;9.80;;;;;;;;;;5070806;28;20025;-63
2023/05/11 12:02:14;;;;;;;9.88;8.68;;;;;;;;;;5070385;28;20020;-63
2023/05/11 12:04:44;;;;;;;10.82;8.40;;;;;;;;;;5070150;28;20036;-66
2023/05/11 12:07:12;;;;;;;12.48;9.90;;;;;;;;;;5038735;28;20035;-70
2023/05/11 12:09:38;;;;;;;12.73;9.75;;;;;;;;;;5051506;28;20029;-68
2023/05/11 12:12:05;;;;;;;12.50;10.35;;;;;;;;;;5046189;28;20488;-69
2023/05/11 12:14:31;;;;;;;10.02;8.60;;;;;;;;;;5048192;28;20028;-69
2023/05/11 12:17:02;;;;;;;10.82;9.52;;;;;;;;;;5047125;28;20016;-67
2023/05/11 12:19:28;;;;;;;13.05;9.27;;;;;;;;;;5045334;28;20021;-67
2023/05/11 12:21:54;;;;;;;12.88;9.95;;;;;;;;;;5042379;28;20502;-69
2023/05/11 12:24:20;;;;;;;11.93;10.18;;;;;;;;;;5037244;28;20083;-67
2023/05/11 12:26:47;;;;;;;13.35;10.85;;;;;;;;;;5054007;28;20028;-65
2023/05/11 12:29:14;;;;;;;14.35;11.98;;;;;;;;;;5040319;28;20029;-69
2023/05/11 12:31:41;;;;;;;11.75;9.85;;;;;;;;;;5062585;28;20082;-63
2023/05/11 12:34:07;;;;;;;12.32;9.73;;;;;;;;;;5056003;28;20063;-66